sensor_id;sensor_type;location;lat;lon;timestamp;pressure;altitude;pressure_sealevel;temperature;humidity
65359;BME280;52491;45.900;6.346;2023-02-12T00:00:04;95323.56;;;23.43;20.74
65359;BME280;52491;45.900;6.346;2023-02-12T00:02:30;95322.75;;;23.42;20.64
65359;BME280;52491;45.900;6.346;2023-02-12T00:04:55;95321.94;;;23.42;20.50
65359;BME280;52491;45.900;6.346;2023-02-12T00:07:21;95318.09;;;23.38;20.38
65359;BME280;52491;45.900;6.346;2023-02-12T00:09:47;95318.09;;;23.38;20.45
65359;BME280;52491;45.900;6.346;2023-02-12T00:12:12;95317.88;;;23.39;20.43
65359;BME280;52491;45.900;6.346;2023-02-12T00:14:38;95312.56;;;23.39;20.33
65359;BME280;52491;45.900;6.346;2023-02-12T00:17:03;95320.75;;;23.38;20.26
65359;BME280;52491;45.900;6.346;2023-02-12T00:19:29;95317.28;;;23.37;20.49
65359;BME280;52491;45.900;6.346;2023-02-12T00:21:55;95316.47;;;23.37;20.40
65359;BME280;52491;45.900;6.346;2023-02-12T00:24:21;95311.34;;;23.35;20.12
65359;BME280;52491;45.900;6.346;2023-02-12T00:26:46;95309.75;;;23.34;20.29
65359;BME280;52491;45.900;6.346;2023-02-12T00:29:13;95307.09;;;23.34;20.25
65359;BME280;52491;45.900;6.346;2023-02-12T00:31:39;95302.81;;;23.33;20.16
65359;BME280;52491;45.900;6.346;2023-02-12T00:34:05;95296.66;;;23.33;20.05
65359;BME280;52491;45.900;6.346;2023-02-12T00:36:31;95299.31;;;23.33;20.06
65359;BME280;52491;45.900;6.346;2023-02-12T00:38:58;95304.06;;;23.31;20.08
65359;BME280;52491;45.900;6.346;2023-02-12T00:41:24;95304.88;;;23.31;20.07
65359;BME280;52491;45.900;6.346;2023-02-12T00:43:50;95303.25;;;23.30;20.08
65359;BME280;52491;45.900;6.346;2023-02-12T00:46:16;95302.41;;;23.30;20.05
65359;BME280;52491;45.900;6.346;2023-02-12T00:48:41;95304.25;;;23.29;20.02
65359;BME280;52491;45.900;6.346;2023-02-12T00:51:08;95302.66;;;23.28;19.97
65359;BME280;52491;45.900;6.346;2023-02-12T00:53:34;95311.66;;;23.27;20.06
65359;BME280;52491;45.900;6.346;2023-02-12T00:55:59;95300.00;;;23.28;20.07
65359;BME280;52491;45.900;6.346;2023-02-12T00:58:26;95297.78;;;23.25;19.91
65359;BME280;52491;45.900;6.346;2023-02-12T01:00:52;95305.75;;;23.25;19.85
65359;BME280;52491;45.900;6.346;2023-02-12T01:03:17;95301.44;;;23.24;19.93
65359;BME280;52491;45.900;6.346;2023-02-12T01:05:43;95301.44;;;23.24;19.91
65359;BME280;52491;45.900;6.346;2023-02-12T01:08:13;95306.56;;;23.26;19.95
65359;BME280;52491;45.900;6.346;2023-02-12T01:10:40;95303.91;;;23.26;19.83
65359;BME280;52491;45.900;6.346;2023-02-12T01:13:06;95296.13;;;23.24;19.85
65359;BME280;52491;45.900;6.346;2023-02-12T01:15:31;95300.44;;;23.25;19.69
65359;BME280;52491;45.900;6.346;2023-02-12T01:17:57;95300.63;;;23.23;19.73
65359;BME280;52491;45.900;6.346;2023-02-12T01:20:24;95299.84;;;23.23;19.75
65359;BME280;52491;45.900;6.346;2023-02-12T01:22:50;95304.34;;;23.22;19.74
65359;BME280;52491;45.900;6.346;2023-02-12T01:25:16;95301.69;;;23.22;19.68
65359;BME280;52491;45.900;6.346;2023-02-12T01:27:42;95305.16;;;23.23;19.51
65359;BME280;52491;45.900;6.346;2023-02-12T01:30:10;95302.50;;;23.23;19.61
65359;BME280;52491;45.900;6.346;2023-02-12T01:32:36;95296.38;;;23.22;19.57
65359;BME280;52491;45.900;6.346;2023-02-12T01:35:03;95302.50;;;23.23;19.54
65359;BME280;52491;45.900;6.346;2023-02-12T01:37:29;95307.00;;;23.22;19.51
65359;BME280;52491;45.900;6.346;2023-02-12T01:39:54;95295.56;;;23.22;19.47
65359;BME280;52491;45.900;6.346;2023-02-12T01:42:20;95297.16;;;23.23;19.57
65359;BME280;52491;45.900;6.346;2023-02-12T01:47:44;95301.69;;;23.22;19.44
65359;BME280;52491;45.900;6.346;2023-02-12T01:50:12;95302.50;;;23.23;19.59
65359;BME280;52491;45.900;6.346;2023-02-12T01:52:41;95298.78;;;23.24;19.52
65359;BME280;52491;45.900;6.346;2023-02-12T01:55:09;95300.88;;;23.22;19.35
65359;BME280;52491;45.900;6.346;2023-02-12T01:57:38;95300.63;;;23.23;19.44
65359;BME280;52491;45.900;6.346;2023-02-12T02:00:11;95303.31;;;23.23;19.42
65359;BME280;52491;45.900;6.346;2023-02-12T02:02:38;95297.16;;;23.23;19.44
65359;BME280;52491;45.900;6.346;2023-02-12T02:05:04;95293.69;;;23.22;19.33
65359;BME280;52491;45.900;6.346;2023-02-12T02:07:31;95296.38;;;23.22;19.42
65359;BME280;52491;45.900;6.346;2023-02-12T02:09:57;95292.66;;;23.23;19.36
65359;BME280;52491;45.900;6.346;2023-02-12T02:12:24;95300.63;;;23.23;19.24
65359;BME280;52491;45.900;6.346;2023-02-12T02:15:10;95288.16;;;23.24;19.26
65359;BME280;52491;45.900;6.346;2023-02-12T02:17:56;95287.34;;;23.23;19.30
65359;BME280;52491;45.900;6.346;2023-02-12T02:20:53;95288.16;;;23.24;19.09
65359;BME280;52491;45.900;6.346;2023-02-12T02:23:44;95281.22;;;23.23;19.28
65359;BME280;52491;45.900;6.346;2023-02-12T02:31:57;95274.28;;;23.22;19.20
65359;BME280;52491;45.900;6.346;2023-02-12T02:34:49;95278.31;;;23.24;19.20
65359;BME280;52491;45.900;6.346;2023-02-12T02:37:20;95275.06;;;23.22;19.19
65359;BME280;52491;45.900;6.346;2023-02-12T02:39:54;95270.56;;;23.23;19.20
65359;BME280;52491;45.900;6.346;2023-02-12T02:42:38;95277.50;;;23.24;19.06
65359;BME280;52491;45.900;6.346;2023-02-12T02:45:11;95279.16;;;23.25;19.13
65359;BME280;52491;45.900;6.346;2023-02-12T02:47:45;95276.50;;;23.25;19.06
65359;BME280;52491;45.900;6.346;2023-02-12T02:50:15;95273.00;;;23.24;19.01
65359;BME280;52491;45.900;6.346;2023-02-12T02:52:49;95277.28;;;23.26;18.96
65359;BME280;52491;45.900;6.346;2023-02-12T02:55:18;95279.94;;;23.26;18.95
65359;BME280;52491;45.900;6.346;2023-02-12T02:58:11;95269.06;;;23.27;18.88
65359;BME280;52491;45.900;6.346;2023-02-12T03:00:38;95265.84;;;23.25;18.99
65359;BME280;52491;45.900;6.346;2023-02-12T03:03:12;95267.25;;;23.28;18.84
65359;BME280;52491;45.900;6.346;2023-02-12T03:05:46;95269.31;;;23.26;19.00
65359;BME280;52491;45.900;6.346;2023-02-12T03:08:20;95256.00;;;23.26;19.05
65359;BME280;52491;45.900;6.346;2023-02-12T03:10:53;95264.00;;;23.26;18.96
65359;BME280;52491;45.900;6.346;2023-02-12T03:13:27;95251.50;;;23.26;19.01
65359;BME280;52491;45.900;6.346;2023-02-12T03:15:59;95254.97;;;23.27;18.96
65359;BME280;52491;45.900;6.346;2023-02-12T03:18:32;95256.59;;;23.28;18.89
65359;BME280;52491;45.900;6.346;2023-02-12T03:21:04;95254.75;;;23.28;18.74
65359;BME280;52491;45.900;6.346;2023-02-12T03:24:09;95246.16;;;23.26;18.94
65359;BME280;52491;45.900;6.346;2023-02-12T03:26:50;95248.03;;;23.26;18.94
65359;BME280;52491;45.900;6.346;2023-02-12T03:29:18;95253.56;;;23.24;18.88
65359;BME280;52491;45.900;6.346;2023-02-12T03:32:15;95249.88;;;23.25;18.89
65359;BME280;52491;45.900;6.346;2023-02-12T03:34:50;95249.03;;;23.24;19.00
65359;BME280;52491;45.900;6.346;2023-02-12T03:37:23;95244.56;;;23.25;18.90
65359;BME280;52491;45.900;6.346;2023-02-12T03:42:31;95248.84;;;23.26;18.79
65359;BME280;52491;45.900;6.346;2023-02-12T03:50:48;95255.66;;;23.22;19.06
65359;BME280;52491;45.900;6.346;2023-02-12T03:53:16;95255.66;;;23.22;18.84
65359;BME280;52491;45.900;6.346;2023-02-12T03:55:45;95259.91;;;23.23;18.74
65359;BME280;52491;45.900;6.346;2023-02-12T03:58:18;95259.91;;;23.23;18.84
65359;BME280;52491;45.900;6.346;2023-02-12T04:00:45;95264.44;;;23.22;18.90
65359;BME280;52491;45.900;6.346;2023-02-12T04:03:11;95258.31;;;23.22;18.78
65359;BME280;52491;45.900;6.346;2023-02-12T04:05:37;95251.94;;;23.23;18.86
65359;BME280;52491;45.900;6.346;2023-02-12T04:08:05;95259.13;;;23.22;18.75
65359;BME280;52491;45.900;6.346;2023-02-12T04:10:37;95251.69;;;23.24;18.73
65359;BME280;52491;45.900;6.346;2023-02-12T04:13:16;95261.53;;;23.24;18.81
65359;BME280;52491;45.900;6.346;2023-02-12T04:16:03;95248.22;;;23.24;18.67
65359;BME280;52491;45.900;6.346;2023-02-12T04:18:45;95244.75;;;23.23;18.81
65359;BME280;52491;45.900;6.346;2023-02-12T04:27:24;95251.13;;;23.22;18.75
65359;BME280;52491;45.900;6.346;2023-02-12T04:30:04;95251.13;;;23.22;18.77
65359;BME280;52491;45.900;6.346;2023-02-12T04:32:38;95249.28;;;23.23;18.72
65359;BME280;52491;45.900;6.346;2023-02-12T04:35:18;95245.56;;;23.24;18.78
65359;BME280;52491;45.900;6.346;2023-02-12T04:37:49;95253.56;;;23.24;18.72
65359;BME280;52491;45.900;6.346;2023-02-12T04:40:17;95249.28;;;23.23;18.84
65359;BME280;52491;45.900;6.346;2023-02-12T04:42:48;95265.00;;;23.24;18.71
65359;BME280;52491;45.900;6.346;2023-02-12T04:45:27;95266.66;;;23.26;18.64
65359;BME280;52491;45.900;6.346;2023-02-12T04:47:53;95271.38;;;23.23;18.72
65359;BME280;52491;45.900;6.346;2023-02-12T04:50:19;95261.53;;;23.24;18.53
65359;BME280;52491;45.900;6.346;2023-02-12T04:52:44;95264.78;;;23.26;18.64
65359;BME280;52491;45.900;6.346;2023-02-12T04:55:11;95264.00;;;23.26;18.63
65359;BME280;52491;45.900;6.346;2023-02-12T04:57:36;95272.78;;;23.26;18.58
65359;BME280;52491;45.900;6.346;2023-02-12T05:00:04;95265.59;;;23.27;18.66
65359;BME280;52491;45.900;6.346;2023-02-12T05:02:30;95260.06;;;23.28;18.60
65359;BME280;52491;45.900;6.346;2023-02-12T05:04:57;95261.09;;;23.27;18.57
65359;BME280;52491;45.900;6.346;2023-02-12T05:07:22;95258.44;;;23.27;18.62
65359;BME280;52491;45.900;6.346;2023-02-12T05:09:48;95271.53;;;23.29;18.58
65359;BME280;52491;45.900;6.346;2023-02-12T05:12:14;95276.03;;;23.28;18.66
65359;BME280;52491;45.900;6.346;2023-02-12T05:14:39;95273.38;;;23.28;18.56
65359;BME280;52491;45.900;6.346;2023-02-12T05:17:05;95266.22;;;23.29;18.57
65359;BME280;52491;45.900;6.346;2023-02-12T05:19:30;95261.47;;;23.31;18.59
65359;BME280;52491;45.900;6.346;2023-02-12T05:21:56;95261.47;;;23.31;18.72
65359;BME280;52491;45.900;6.346;2023-02-12T05:24:22;95259.84;;;23.30;18.51
65359;BME280;52491;45.900;6.346;2023-02-12T05:26:48;95254.31;;;23.31;18.46
65359;BME280;52491;45.900;6.346;2023-02-12T05:29:14;95256.16;;;23.31;18.57
65359;BME280;52491;45.900;6.346;2023-02-12T05:31:40;95256.97;;;23.31;18.46
65359;BME280;52491;45.900;6.346;2023-02-12T05:34:07;95256.16;;;23.31;18.54
65359;BME280;52491;45.900;6.346;2023-02-12T05:36:34;95250.84;;;23.31;18.50
65359;BME280;52491;45.900;6.346;2023-02-12T05:38:59;95246.31;;;23.31;18.51
65359;BME280;52491;45.900;6.346;2023-02-12T05:41:25;95245.28;;;23.32;18.57
65359;BME280;52491;45.900;6.346;2023-02-12T05:43:52;95239.97;;;23.32;18.45
65359;BME280;52491;45.900;6.346;2023-02-12T05:46:19;95240.56;;;23.34;18.47
65359;BME280;52491;45.900;6.346;2023-02-12T05:48:46;95242.16;;;23.35;18.58
65359;BME280;52491;45.900;6.346;2023-02-12T05:51:14;95249.13;;;23.36;18.50
65359;BME280;52491;45.900;6.346;2023-02-12T05:53:41;95247.50;;;23.35;18.36
65359;BME280;52491;45.900;6.346;2023-02-12T05:56:23;95246.25;;;23.38;18.26
65359;BME280;52491;45.900;6.346;2023-02-12T05:58:54;95246.25;;;23.38;18.28
65359;BME280;52491;45.900;6.346;2023-02-12T06:01:24;95235.59;;;23.38;18.36
65359;BME280;52491;45.900;6.346;2023-02-12T06:03:50;95252.59;;;23.37;18.50
65359;BME280;52491;45.900;6.346;2023-02-12T06:06:15;95240.09;;;23.37;18.42
65359;BME280;52491;45.900;6.346;2023-02-12T06:08:41;95246.25;;;23.38;18.49
65359;BME280;52491;45.900;6.346;2023-02-12T06:11:10;95237.81;;;23.41;18.39
65359;BME280;52491;45.900;6.346;2023-02-12T06:13:37;95244.16;;;23.40;18.26
65359;BME280;52491;45.900;6.346;2023-02-12T06:16:03;95242.31;;;23.40;18.39
65359;BME280;52491;45.900;6.346;2023-02-12T06:18:29;95242.31;;;23.40;18.33
65359;BME280;52491;45.900;6.346;2023-02-12T06:20:55;95251.13;;;23.41;18.41
65359;BME280;52491;45.900;6.346;2023-02-12T06:23:22;95250.09;;;23.42;18.47
65359;BME280;52491;45.900;6.346;2023-02-12T06:25:48;95246.38;;;23.43;18.59
65359;BME280;52491;45.900;6.346;2023-02-12T06:28:15;95254.16;;;23.44;18.41
65359;BME280;52491;45.900;6.346;2023-02-12T06:30:41;95254.72;;;23.46;18.41
65359;BME280;52491;45.900;6.346;2023-02-12T06:33:07;95261.09;;;23.45;18.35
65359;BME280;52491;45.900;6.346;2023-02-12T06:35:36;95262.25;;;23.50;18.35
65359;BME280;52491;45.900;6.346;2023-02-12T06:38:02;95258.78;;;23.49;18.39
65359;BME280;52491;45.900;6.346;2023-02-12T06:40:28;95255.94;;;23.51;18.42
65359;BME280;52491;45.900;6.346;2023-02-12T06:42:54;95255.13;;;23.50;18.29
65359;BME280;52491;45.900;6.346;2023-02-12T06:45:19;95258.59;;;23.51;18.25
65359;BME280;52491;45.900;6.346;2023-02-12T06:47:45;95246.09;;;23.51;18.28
65359;BME280;52491;45.900;6.346;2023-02-12T06:50:10;95256.72;;;23.51;18.41
65359;BME280;52491;45.900;6.346;2023-02-12T06:52:36;95262.88;;;23.52;18.39
65359;BME280;52491;45.900;6.346;2023-02-12T06:55:02;95260.81;;;23.54;18.45
65359;BME280;52491;45.900;6.346;2023-02-12T06:57:28;95274.09;;;23.54;18.33
65359;BME280;52491;45.900;6.346;2023-02-12T06:59:54;95274.91;;;23.54;18.33
65359;BME280;52491;45.900;6.346;2023-02-12T07:02:20;95272.03;;;23.56;18.38
65359;BME280;52491;45.900;6.346;2023-02-12T07:04:45;95281.06;;;23.55;18.41
65359;BME280;52491;45.900;6.346;2023-02-12T07:07:11;95273.88;;;23.55;18.32
65359;BME280;52491;45.900;6.346;2023-02-12T07:09:37;95277.38;;;23.56;18.39
65359;BME280;52491;45.900;6.346;2023-02-12T07:12:03;95272.84;;;23.56;18.46
65359;BME280;52491;45.900;6.346;2023-02-12T07:14:28;95274.72;;;23.56;18.30
65359;BME280;52491;45.900;6.346;2023-02-12T07:16:54;95278.38;;;23.55;18.46
65359;BME280;52491;45.900;6.346;2023-02-12T07:19:20;95273.88;;;23.55;18.28
65359;BME280;52491;45.900;6.346;2023-02-12T07:21:46;95279.00;;;23.57;18.17
65359;BME280;52491;45.900;6.346;2023-02-12T07:24:12;95265.88;;;23.55;18.51
65359;BME280;52491;45.900;6.346;2023-02-12T07:26:39;95273.88;;;23.55;18.41
65359;BME280;52491;45.900;6.346;2023-02-12T07:29:05;95274.72;;;23.56;18.44
65359;BME280;52491;45.900;6.346;2023-02-12T07:31:31;95256.06;;;23.56;18.44
65359;BME280;52491;45.900;6.346;2023-02-12T07:33:58;95265.06;;;23.55;18.57
65359;BME280;52491;45.900;6.346;2023-02-12T07:36:26;95268.13;;;23.58;18.88
65359;BME280;52491;45.900;6.346;2023-02-12T07:38:53;95271.97;;;23.62;18.66
65359;BME280;52491;45.900;6.346;2023-02-12T07:41:24;95277.28;;;23.62;19.07
65359;BME280;52491;45.900;6.346;2023-02-12T07:43:59;95282.59;;;23.62;19.09
65359;BME280;52491;45.900;6.346;2023-02-12T07:46:31;95282.00;;;23.60;19.10
65359;BME280;52491;45.900;6.346;2023-02-12T07:48:59;95276.91;;;23.59;19.16
65359;BME280;52491;45.900;6.346;2023-02-12T07:51:26;95271.81;;;23.57;19.27
65359;BME280;52491;45.900;6.346;2023-02-12T07:53:52;95271.81;;;23.57;19.45
65359;BME280;52491;45.900;6.346;2023-02-12T07:56:23;95276.69;;;23.60;19.13
65359;BME280;52491;45.900;6.346;2023-02-12T07:58:52;95277.28;;;23.62;19.06
65359;BME280;52491;45.900;6.346;2023-02-12T08:01:23;95277.28;;;23.62;19.49
65359;BME280;52491;45.900;6.346;2023-02-12T08:03:51;95275.06;;;23.59;19.60
65359;BME280;52491;45.900;6.346;2023-02-12T08:06:23;95276.91;;;23.59;19.61
65359;BME280;52491;45.900;6.346;2023-02-12T08:08:53;95283.84;;;23.60;19.62
65359;BME280;52491;45.900;6.346;2023-02-12T08:11:20;95287.78;;;23.57;19.52
65359;BME280;52491;45.900;6.346;2023-02-12T08:13:47;95289.63;;;23.57;19.60
65359;BME280;52491;45.900;6.346;2023-02-12T08:16:16;95297.16;;;23.60;19.73
65359;BME280;52491;45.900;6.346;2023-02-12T08:18:42;95295.75;;;23.57;19.82
65359;BME280;52491;45.900;6.346;2023-02-12T08:21:28;95297.16;;;23.60;19.80
65359;BME280;52491;45.900;6.346;2023-02-12T08:23:55;95297.41;;;23.58;19.90
65359;BME280;52491;45.900;6.346;2023-02-12T08:26:26;95301.69;;;23.59;19.70
65359;BME280;52491;45.900;6.346;2023-02-12T08:29:00;95294.31;;;23.61;19.76
65359;BME280;52491;45.900;6.346;2023-02-12T08:31:36;95292.66;;;23.60;19.60
65359;BME280;52491;45.900;6.346;2023-02-12T08:34:03;95293.47;;;23.61;19.83
65359;BME280;52491;45.900;6.346;2023-02-12T08:36:35;95293.47;;;23.61;19.68
65359;BME280;52491;45.900;6.346;2023-02-12T08:39:01;95288.38;;;23.59;20.02
65359;BME280;52491;45.900;6.346;2023-02-12T08:41:28;95281.66;;;23.57;19.82
65359;BME280;52491;45.900;6.346;2023-02-12T08:43:56;95288.03;;;23.56;19.96
65359;BME280;52491;45.900;6.346;2023-02-12T08:46:30;95289.03;;;23.55;20.02
65359;BME280;52491;45.900;6.346;2023-02-12T08:48:59;95291.69;;;23.55;20.10
65359;BME280;52491;45.900;6.346;2023-02-12T08:51:28;95280.03;;;23.56;19.97
65359;BME280;52491;45.900;6.346;2023-02-12T08:53:57;95277.38;;;23.56;19.97
65359;BME280;52491;45.900;6.346;2023-02-12T08:56:24;95283.72;;;23.55;19.99
65359;BME280;52491;45.900;6.346;2023-02-12T08:58:50;95282.91;;;23.54;19.90
65359;BME280;52491;45.900;6.346;2023-02-12T09:01:21;95274.09;;;23.54;20.16
65359;BME280;52491;45.900;6.346;2023-02-12T09:03:48;95277.56;;;23.54;20.22
65359;BME280;52491;45.900;6.346;2023-02-12T09:06:16;95271.22;;;23.55;20.25
65359;BME280;52491;45.900;6.346;2023-02-12T09:08:43;95275.28;;;23.58;20.05
65359;BME280;52491;45.900;6.346;2023-02-12T09:11:14;95266.28;;;23.59;20.21
65359;BME280;52491;45.900;6.346;2023-02-12T09:13:44;95263.59;;;23.59;20.12
65359;BME280;52491;45.900;6.346;2023-02-12T09:16:11;95265.22;;;23.60;20.04
65359;BME280;52491;45.900;6.346;2023-02-12T09:18:38;95270.34;;;23.61;20.21
65359;BME280;52491;45.900;6.346;2023-02-12T09:23:33;95267.00;;;23.66;19.81
65359;BME280;52491;45.900;6.346;2023-02-12T09:26:04;95265.53;;;23.70;19.86
65359;BME280;52491;45.900;6.346;2023-02-12T09:28:32;95266.13;;;23.72;19.71
65359;BME280;52491;45.900;6.346;2023-02-12T09:31:10;95268.34;;;23.75;20.17
65359;BME280;52491;45.900;6.346;2023-02-12T09:33:37;95270.84;;;23.70;20.07
65359;BME280;52491;45.900;6.346;2023-02-12T09:36:06;95266.34;;;23.71;20.31
65359;BME280;52491;45.900;6.346;2023-02-12T09:38:32;95265.53;;;23.70;20.70
65359;BME280;52491;45.900;6.346;2023-02-12T09:41:11;95274.69;;;23.74;20.48
65359;BME280;52491;45.900;6.346;2023-02-12T09:48:55;95270.78;;;23.77;20.68
65359;BME280;52491;45.900;6.346;2023-02-12T09:51:23;95266.25;;;23.77;21.01
65359;BME280;52491;45.900;6.346;2023-02-12T09:54:00;95264.19;;;23.79;20.75
65359;BME280;52491;45.900;6.346;2023-02-12T09:56:27;95264.56;;;23.83;20.51
65359;BME280;52491;45.900;6.346;2023-02-12T09:58:57;95263.88;;;23.87;20.43
65359;BME280;52491;45.900;6.346;2023-02-12T10:01:26;95260.16;;;23.88;20.31
65359;BME280;52491;45.900;6.346;2023-02-12T10:03:52;95264.09;;;23.86;20.26
65359;BME280;52491;45.900;6.346;2023-02-12T10:06:22;95270.25;;;23.86;20.32
65359;BME280;52491;45.900;6.346;2023-02-12T10:09:18;95265.50;;;23.88;20.15
65359;BME280;52491;45.900;6.346;2023-02-12T10:25:52;95257.66;;;23.94;20.21
65359;BME280;52491;45.900;6.346;2023-02-12T10:28:25;95254.97;;;23.94;20.05
65359;BME280;52491;45.900;6.346;2023-02-12T10:30:56;95252.91;;;23.96;20.14
65359;BME280;52491;45.900;6.346;2023-02-12T10:33:34;95249.19;;;23.97;20.09
65359;BME280;52491;45.900;6.346;2023-02-12T10:36:48;95255.94;;;23.99;20.19
65359;BME280;52491;45.900;6.346;2023-02-12T10:38:58;95255.13;;;23.99;20.07
65359;BME280;52491;45.900;6.346;2023-02-12T10:41:28;95246.69;;;24.02;19.98
65359;BME280;52491;45.900;6.346;2023-02-12T10:43:55;95246.69;;;24.02;19.90
65359;BME280;52491;45.900;6.346;2023-02-12T10:46:20;95245.63;;;24.03;20.09
65359;BME280;52491;45.900;6.346;2023-02-12T10:48:52;95243.56;;;24.05;20.13
65359;BME280;52491;45.900;6.346;2023-02-12T10:51:42;95244.16;;;24.07;20.03
65359;BME280;52491;45.900;6.346;2023-02-12T10:57:20;95236.16;;;24.07;20.00
65359;BME280;52491;45.900;6.346;2023-02-12T10:59:48;95231.88;;;24.06;20.04
65359;BME280;52491;45.900;6.346;2023-02-12T11:02:23;95221.22;;;24.06;20.16
65359;BME280;52491;45.900;6.346;2023-02-12T11:04:50;95223.88;;;24.06;20.25
65359;BME280;52491;45.900;6.346;2023-02-12T11:07:17;95221.22;;;24.06;20.16
65359;BME280;52491;45.900;6.346;2023-02-12T11:09:48;95211.94;;;24.08;20.29
65359;BME280;52491;45.900;6.346;2023-02-12T11:14:54;95196.53;;;24.10;20.28
65359;BME280;52491;45.900;6.346;2023-02-12T11:17:36;95201.66;;;24.12;20.01
65359;BME280;52491;45.900;6.346;2023-02-12T11:20:19;95207.19;;;24.10;20.24
65359;BME280;52491;45.900;6.346;2023-02-12T11:22:58;95197.94;;;24.13;20.10
65359;BME280;52491;45.900;6.346;2023-02-12T11:25:30;95190.19;;;24.11;20.15
65359;BME280;52491;45.900;6.346;2023-02-12T11:28:05;95192.03;;;24.11;20.27
65359;BME280;52491;45.900;6.346;2023-02-12T11:30:31;95188.34;;;24.12;20.29
65359;BME280;52491;45.900;6.346;2023-02-12T11:33:27;95183.81;;;24.12;20.46
65359;BME280;52491;45.900;6.346;2023-02-12T11:35:59;95179.75;;;24.10;20.19
65359;BME280;52491;45.900;6.346;2023-02-12T11:38:31;95184.63;;;24.13;20.38
65359;BME280;52491;45.900;6.346;2023-02-12T11:41:01;95180.34;;;24.12;20.18
65359;BME280;52491;45.900;6.346;2023-02-12T11:43:28;95180.09;;;24.13;20.12
65359;BME280;52491;45.900;6.346;2023-02-12T11:45:57;95174.78;;;24.13;20.21
65359;BME280;52491;45.900;6.346;2023-02-12T11:48:28;95170.72;;;24.11;20.54
65359;BME280;52491;45.900;6.346;2023-02-12T11:50:56;95161.69;;;24.12;20.51
65359;BME280;52491;45.900;6.346;2023-02-12T11:53:28;95155.91;;;24.15;20.34
65359;BME280;52491;45.900;6.346;2023-02-12T11:56:01;95160.19;;;24.16;20.46
65359;BME280;52491;45.900;6.346;2023-02-12T11:58:28;95144.19;;;24.16;20.20
65359;BME280;52491;45.900;6.346;2023-02-12T12:01:05;95149.06;;;24.19;20.25
65359;BME280;52491;45.900;6.346;2023-02-12T12:06:26;95145.38;;;24.20;20.33
65359;BME280;52491;45.900;6.346;2023-02-12T12:09:14;95145.38;;;24.20;20.49
65359;BME280;52491;45.900;6.346;2023-02-12T12:12:12;95140.84;;;24.21;20.48
65359;BME280;52491;45.900;6.346;2023-02-12T12:21:07;95132.84;;;24.21;20.49
65359;BME280;52491;45.900;6.346;2023-02-12T12:23:38;95142.25;;;24.23;20.57
65359;BME280;52491;45.900;6.346;2023-02-12T12:26:09;95142.25;;;24.23;20.27
65359;BME280;52491;45.900;6.346;2023-02-12T12:28:43;95134.81;;;24.25;20.63
65359;BME280;52491;45.900;6.346;2023-02-12T12:45:04;95120.22;;;24.28;20.56
65359;BME280;52491;45.900;6.346;2023-02-12T12:50:28;95116.06;;;24.32;20.61
65359;BME280;52491;45.900;6.346;2023-02-12T12:53:08;95113.97;;;24.34;20.55
65359;BME280;52491;45.900;6.346;2023-02-12T12:55:58;95114.31;;;24.38;20.44
65359;BME280;52491;45.900;6.346;2023-02-12T13:09:34;95103.78;;;24.43;20.55
65359;BME280;52491;45.900;6.346;2023-02-12T13:14:56;95096.81;;;24.42;20.77
65359;BME280;52491;45.900;6.346;2023-02-12T13:17:30;95106.44;;;24.43;20.72
65359;BME280;52491;45.900;6.346;2023-02-12T13:20:16;95100.09;;;24.44;20.72
65359;BME280;52491;45.900;6.346;2023-02-12T13:25:45;95098.81;;;24.46;20.76
65359;BME280;52491;45.900;6.346;2023-02-12T13:28:17;95102.28;;;24.47;20.69
65359;BME280;52491;45.900;6.346;2023-02-12T13:30:48;95101.25;;;24.48;20.49
65359;BME280;52491;45.900;6.346;2023-02-12T13:33:21;95101.00;;;24.49;20.86
65359;BME280;52491;45.900;6.346;2023-02-12T13:35:51;95098.34;;;24.49;20.81
65359;BME280;52491;45.900;6.346;2023-02-12T13:38:27;95102.88;;;24.49;20.46
65359;BME280;52491;45.900;6.346;2023-02-12T13:41:01;95100.19;;;24.49;20.74
65359;BME280;52491;45.900;6.346;2023-02-12T13:51:50;95097.53;;;24.49;20.66
65359;BME280;52491;45.900;6.346;2023-02-12T13:54:39;95095.94;;;24.48;20.63
65359;BME280;52491;45.900;6.346;2023-02-12T13:57:18;95097.28;;;24.50;21.02
65359;BME280;52491;45.900;6.346;2023-02-12T13:59:52;95098.34;;;24.49;20.92
65359;BME280;52491;45.900;6.346;2023-02-12T14:02:39;95098.13;;;24.51;20.87
65359;BME280;52491;45.900;6.346;2023-02-12T14:05:25;95092.53;;;24.52;20.99
65359;BME280;52491;45.900;6.346;2023-02-12T14:07:55;95098.13;;;24.51;20.80
65359;BME280;52491;45.900;6.346;2023-02-12T14:10:23;95105.06;;;24.52;20.62
65359;BME280;52491;45.900;6.346;2023-02-12T14:12:50;95094.41;;;24.52;21.07
65359;BME280;52491;45.900;6.346;2023-02-12T14:15:34;95099.25;;;24.55;21.11
65359;BME280;52491;45.900;6.346;2023-02-12T14:23:45;95091.50;;;24.53;20.87
65359;BME280;52491;45.900;6.346;2023-02-12T14:26:11;95097.66;;;24.54;20.91
65359;BME280;52491;45.900;6.346;2023-02-12T14:34:35;95094.50;;;24.57;20.83
65359;BME280;52491;45.900;6.346;2023-02-12T14:36:41;95094.75;;;24.55;20.96
65359;BME280;52491;45.900;6.346;2023-02-12T14:41:47;95095.22;;;24.52;21.06
65359;BME280;52491;45.900;6.346;2023-02-12T14:46:55;95097.41;;;24.55;20.89
65359;BME280;52491;45.900;6.346;2023-02-12T14:49:26;95097.41;;;24.55;20.89
65359;BME280;52491;45.900;6.346;2023-02-12T14:52:00;95107.84;;;24.57;21.06
65359;BME280;52491;45.900;6.346;2023-02-12T14:54:59;95105.19;;;24.57;20.80
65359;BME280;52491;45.900;6.346;2023-02-12T14:59:59;95115.25;;;24.55;20.86
65359;BME280;52491;45.900;6.346;2023-02-12T15:02:33;95113.41;;;24.55;21.11
65359;BME280;52491;45.900;6.346;2023-02-12T15:05:19;95115.84;;;24.57;21.09
65359;BME280;52491;45.900;6.346;2023-02-12T15:07:53;95119.78;;;24.54;20.81
65359;BME280;52491;45.900;6.346;2023-02-12T15:10:40;95121.03;;;24.40;20.26
65359;BME280;52491;45.900;6.346;2023-02-12T15:18:25;95121.25;;;24.39;20.73
65359;BME280;52491;45.900;6.346;2023-02-12T15:21:25;95121.03;;;24.40;21.04
65359;BME280;52491;45.900;6.346;2023-02-12T15:24:09;95123.28;;;24.43;21.10